createdAt,value
2017-09-01T00:00:33.292Z,0
2017-09-01T00:01:33.328Z,0
2017-09-01T00:02:33.359Z,0
2017-09-01T00:03:33.327Z,0
2017-09-01T00:04:33.381Z,0
2017-09-01T00:05:33.364Z,0
2017-09-01T00:06:33.361Z,0
2017-09-01T00:07:33.299Z,0
2017-09-01T00:08:33.303Z,0
2017-09-01T00:09:33.358Z,0
2017-09-01T00:10:33.357Z,0
2017-09-01T00:11:33.317Z,0
2017-09-01T00:12:33.388Z,0
2017-09-01T00:13:33.367Z,0
2017-09-01T00:14:33.298Z,0
2017-09-01T00:15:33.343Z,0
2017-09-01T00:16:33.356Z,0
2017-09-01T00:17:33.388Z,0
2017-09-01T00:18:33.330Z,0
2017-09-01T00:19:33.337Z,0
2017-09-01T00:20:33.397Z,0
2017-09-01T00:21:33.328Z,0
2017-09-01T00:22:33.332Z,0
2017-09-01T00:23:33.336Z,0
2017-09-01T00:24:33.397Z,0
2017-09-01T00:25:33.348Z,0
2017-09-01T00:26:33.397Z,0
2017-09-01T00:27:33.343Z,0
2017-09-01T00:28:33.373Z,0
2017-09-01T00:29:33.394Z,0
2017-09-01T00:30:33.337Z,0
2017-09-01T00:31:33.347Z,0
2017-09-01T00:32:33.345Z,0
2017-09-01T00:33:33.382Z,0
2017-09-01T00:34:33.375Z,0
2017-09-01T00:35:33.412Z,0
2017-09-01T00:36:33.338Z,0
2017-09-01T00:37:33.409Z,0
2017-09-01T00:38:33.364Z,0
2017-09-01T00:39:33.344Z,0
2017-09-01T00:40:33.408Z,0
2017-09-01T00:41:33.409Z,0
2017-09-01T00:42:33.411Z,0
2017-09-01T00:43:33.373Z,0
2017-09-01T00:44:33.405Z,0
2017-09-01T00:45:33.355Z,0
2017-09-01T00:46:33.346Z,0
2017-09-01T00:47:33.353Z,0
2017-09-01T00:48:33.347Z,0
2017-09-01T00:49:33.392Z,0
2017-09-01T00:50:33.355Z,0
2017-09-01T00:51:33.321Z,0
2017-09-01T00:52:33.415Z,0
2017-09-01T00:53:33.389Z,0
2017-09-01T00:54:33.353Z,0
2017-09-01T00:55:33.399Z,0
2017-09-01T00:56:33.350Z,0
2017-09-01T00:57:33.320Z,0
2017-09-01T00:58:33.320Z,0
2017-09-01T00:59:33.346Z,0
2017-09-01T01:00:33.348Z,0
2017-09-01T01:01:33.323Z,0
2017-09-01T01:02:33.323Z,0
2017-09-01T01:03:33.322Z,0
2017-09-01T01:04:33.372Z,0
2017-09-01T01:05:33.342Z,0
2017-09-01T01:06:33.314Z,0
2017-09-01T01:07:33.266Z,0
2017-09-01T01:08:33.327Z,0
2017-09-01T01:09:33.292Z,0
2017-09-01T01:10:33.268Z,0
2017-09-01T01:11:33.265Z,0
2017-09-01T01:12:33.340Z,0
2017-09-01T01:13:33.330Z,0
2017-09-01T01:14:33.320Z,0
2017-09-01T01:15:33.389Z,0
2017-09-01T01:16:33.389Z,0
2017-09-01T01:17:33.331Z,0
2017-09-01T01:18:33.330Z,0
2017-09-01T01:19:33.392Z,0
2017-09-01T01:20:33.396Z,0
2017-09-01T01:21:33.359Z,0
2017-09-01T01:22:33.358Z,0
2017-09-01T01:23:33.431Z,0
2017-09-01T01:24:33.362Z,0
2017-09-01T01:25:33.380Z,0
2017-09-01T01:26:33.378Z,0
2017-09-01T01:27:33.368Z,0
2017-09-01T01:28:33.439Z,0
2017-09-01T01:29:33.408Z,0
2017-09-01T01:30:33.375Z,0
2017-09-01T01:31:33.385Z,0
2017-09-01T01:32:33.376Z,0
2017-09-01T01:33:33.367Z,0
2017-09-01T01:34:33.438Z,0
2017-09-01T01:35:33.400Z,0
2017-09-01T01:36:33.403Z,0
2017-09-01T01:37:33.365Z,0
2017-09-01T01:38:33.344Z,0
2017-09-01T01:39:33.369Z,0
2017-09-01T01:40:33.367Z,0
2017-09-01T01:41:33.343Z,0
2017-09-01T01:42:33.346Z,0
2017-09-01T01:43:33.411Z,0
2017-09-01T01:44:33.370Z,0
2017-09-01T01:45:33.411Z,0
2017-09-01T01:46:33.373Z,0
2017-09-01T01:47:33.349Z,0
2017-09-01T01:48:33.410Z,0
2017-09-01T01:49:33.408Z,0
2017-09-01T01:50:33.375Z,0
2017-09-01T01:51:33.349Z,0
2017-09-01T01:52:33.376Z,0
2017-09-01T01:53:33.410Z,0
2017-09-01T01:54:33.379Z,0
2017-09-01T01:55:33.380Z,0
2017-09-01T01:56:33.409Z,0
2017-09-01T01:57:33.368Z,0
2017-09-01T01:58:33.454Z,0
2017-09-01T01:59:33.396Z,0
2017-09-01T02:00:33.387Z,0
2017-09-01T02:01:33.362Z,0
2017-09-01T02:02:33.384Z,0
2017-09-01T02:03:33.400Z,0
2017-09-01T02:04:33.456Z,0
2017-09-01T02:05:33.388Z,0
2017-09-01T02:06:33.358Z,0
2017-09-01T02:07:33.422Z,0
2017-09-01T02:08:33.388Z,0
2017-09-01T02:09:33.385Z,0
2017-09-01T02:10:33.425Z,0
2017-09-01T02:11:33.425Z,0
2017-09-01T02:12:33.423Z,0
2017-09-01T02:13:33.388Z,0
2017-09-01T02:14:33.365Z,0
2017-09-01T02:15:33.388Z,0
2017-09-01T02:16:33.446Z,0
2017-09-01T02:17:33.377Z,0
2017-09-01T02:18:33.382Z,0
2017-09-01T02:19:33.349Z,0
2017-09-01T02:20:33.396Z,0
2017-09-01T02:21:33.371Z,0
2017-09-01T02:22:33.384Z,0
2017-09-01T02:23:33.386Z,0
2017-09-01T02:24:33.395Z,0
2017-09-01T02:25:33.402Z,0
2017-09-01T02:26:33.445Z,0
2017-09-01T02:27:33.381Z,0
2017-09-01T02:28:33.401Z,0
2017-09-01T02:29:33.445Z,0
2017-09-01T02:30:33.379Z,0
2017-09-01T02:31:33.417Z,0
2017-09-01T02:32:37.660Z,0
2017-09-01T02:33:33.419Z,0
2017-09-01T02:34:33.476Z,0
2017-09-01T02:35:33.377Z,0
2017-09-01T02:36:33.440Z,0
2017-09-01T02:37:33.377Z,0
2017-09-01T02:38:33.441Z,0
2017-09-01T02:39:33.442Z,0
2017-09-01T02:40:33.404Z,0
2017-09-01T02:41:33.404Z,0
2017-09-01T02:42:33.376Z,0
2017-09-01T02:43:33.446Z,0
2017-09-01T02:44:33.438Z,0
2017-09-01T02:45:33.443Z,0
2017-09-01T02:46:33.387Z,0
2017-09-01T02:47:33.414Z,0
2017-09-01T02:48:33.442Z,0
2017-09-01T02:49:33.462Z,0
2017-09-01T02:50:33.421Z,0
2017-09-01T02:51:33.418Z,0
2017-09-01T02:52:33.483Z,0
2017-09-01T02:53:33.485Z,0
2017-09-01T02:54:33.458Z,0
2017-09-01T02:55:33.429Z,0
2017-09-01T02:56:33.393Z,0
2017-09-01T02:57:33.396Z,0
2017-09-01T02:58:33.424Z,0
2017-09-01T02:59:33.395Z,0
2017-09-01T03:00:33.415Z,0
2017-09-01T03:01:33.406Z,0
2017-09-01T03:02:33.429Z,0
2017-09-01T03:03:33.425Z,0
2017-09-01T03:04:33.399Z,0
2017-09-01T03:05:33.419Z,0
2017-09-01T03:06:33.421Z,0
2017-09-01T03:07:33.391Z,0
2017-09-01T03:08:33.424Z,0
2017-09-01T03:09:33.457Z,0
2017-09-01T03:10:33.424Z,0
2017-09-01T03:11:33.458Z,0
2017-09-01T03:12:33.429Z,0
2017-09-01T03:13:33.400Z,0
2017-09-01T03:14:33.399Z,0
2017-09-01T03:15:33.338Z,0
2017-09-01T03:16:33.378Z,0
2017-09-01T03:17:33.410Z,0
2017-09-01T03:18:33.398Z,0
2017-09-01T03:19:33.372Z,0
2017-09-01T03:20:33.397Z,0
2017-09-01T03:21:33.410Z,0
2017-09-01T03:22:33.338Z,0
2017-09-01T03:23:33.400Z,0
2017-09-01T03:24:33.418Z,0
2017-09-01T03:25:33.468Z,0
2017-09-01T03:26:33.404Z,0
2017-09-01T03:27:33.408Z,0
2017-09-01T03:28:33.407Z,0
2017-09-01T03:29:33.435Z,0
2017-09-01T03:30:33.434Z,0
2017-09-01T03:31:33.469Z,0
2017-09-01T03:32:33.470Z,0
2017-09-01T03:33:33.411Z,0
2017-09-01T03:34:33.492Z,0
2017-09-01T03:35:33.478Z,0
2017-09-01T03:36:33.416Z,0
2017-09-01T03:37:33.487Z,0
2017-09-01T03:38:33.485Z,0
2017-09-01T03:39:33.442Z,0
2017-09-01T03:40:33.474Z,0
2017-09-01T03:41:33.423Z,0
2017-09-01T03:42:33.459Z,0
2017-09-01T03:43:33.493Z,0
2017-09-01T03:44:33.515Z,0
2017-09-01T03:45:33.420Z,0
2017-09-01T03:46:33.516Z,0
2017-09-01T03:47:33.516Z,0
2017-09-01T03:48:33.423Z,0
2017-09-01T03:49:33.497Z,0
2017-09-01T03:50:33.462Z,0
2017-09-01T03:51:33.464Z,0
2017-09-01T03:52:33.464Z,0
2017-09-01T03:53:33.497Z,0
2017-09-01T03:54:33.468Z,0
2017-09-01T03:55:33.422Z,0
2017-09-01T03:56:33.449Z,0
2017-09-01T03:57:33.449Z,0
2017-09-01T03:58:33.476Z,0
2017-09-01T03:59:33.485Z,0
2017-09-01T04:00:33.427Z,0
2017-09-01T04:01:33.451Z,0
2017-09-01T04:02:33.426Z,0
2017-09-01T04:03:33.488Z,4
2017-09-01T04:04:33.454Z,4
2017-09-01T04:05:33.442Z,4
2017-09-01T04:06:33.362Z,4
2017-09-01T04:07:33.435Z,8
2017-09-01T04:08:33.439Z,4
2017-09-01T04:09:33.427Z,4
2017-09-01T04:10:33.374Z,8
2017-09-01T04:11:33.427Z,8
2017-09-01T04:12:33.439Z,8
2017-09-01T04:13:33.429Z,12
2017-09-01T04:14:33.364Z,12
2017-09-01T04:15:33.482Z,16
2017-09-01T04:16:33.532Z,20
2017-09-01T04:17:33.480Z,20
2017-09-01T04:18:33.538Z,28
2017-09-01T04:19:33.532Z,32
2017-09-01T04:20:33.482Z,40
2017-09-01T04:21:33.443Z,48
2017-09-01T04:22:33.468Z,56
2017-09-01T04:23:33.476Z,68
2017-09-01T04:24:33.536Z,76
2017-09-01T04:25:33.515Z,88
2017-09-01T04:26:33.520Z,100
2017-09-01T04:27:33.448Z,112
2017-09-01T04:28:33.458Z,124
2017-09-01T04:29:33.451Z,136
2017-09-01T04:30:33.519Z,148
2017-09-01T04:31:33.486Z,160
2017-09-01T04:32:33.486Z,180
2017-09-01T04:33:33.503Z,196
2017-09-01T04:34:33.521Z,216
2017-09-01T04:35:33.464Z,240
2017-09-01T04:36:33.440Z,260
2017-09-01T04:37:33.417Z,284
2017-09-01T04:38:33.448Z,312
2017-09-01T04:39:33.435Z,344
2017-09-01T04:40:33.452Z,368
2017-09-01T04:41:33.439Z,400
2017-09-01T04:42:33.468Z,428
2017-09-01T04:43:33.455Z,456
2017-09-01T04:44:33.445Z,484
2017-09-01T04:45:33.517Z,516
2017-09-01T04:46:33.531Z,540
2017-09-01T04:47:33.498Z,560
2017-09-01T04:48:33.515Z,600
2017-09-01T04:49:33.555Z,620
2017-09-01T04:50:33.555Z,648
2017-09-01T04:51:33.461Z,688
2017-09-01T04:52:33.551Z,728
2017-09-01T04:53:33.474Z,764
2017-09-01T04:54:33.539Z,800
2017-09-01T04:55:33.495Z,828
2017-09-01T04:56:33.522Z,852
2017-09-01T04:57:33.543Z,872
2017-09-01T04:58:33.463Z,896
2017-09-01T04:59:33.491Z,924
2017-09-01T05:00:33.489Z,948
2017-09-01T05:01:33.466Z,976
2017-09-01T05:02:33.464Z,1036
2017-09-01T05:03:33.467Z,1104
2017-09-01T05:04:33.465Z,1160
2017-09-01T05:05:33.534Z,1236
2017-09-01T05:06:33.526Z,1304
2017-09-01T05:07:33.556Z,1272
2017-09-01T05:08:33.492Z,1316
2017-09-01T05:09:33.568Z,1404
2017-09-01T05:10:33.506Z,1476
2017-09-01T05:11:33.508Z,1572
2017-09-01T05:12:33.485Z,1632
2017-09-01T05:13:33.502Z,1652
2017-09-01T05:14:33.547Z,1684
2017-09-01T05:15:33.543Z,1764
2017-09-01T05:16:33.564Z,1856
2017-09-01T05:17:33.546Z,1904
2017-09-01T05:18:33.605Z,1936
2017-09-01T05:19:33.566Z,1976
2017-09-01T05:20:33.533Z,2028
2017-09-01T05:21:33.519Z,2112
2017-09-01T05:22:33.570Z,2240
2017-09-01T05:23:33.483Z,2296
2017-09-01T05:24:33.543Z,2340
2017-09-01T05:25:33.482Z,2440
2017-09-01T05:26:33.472Z,2536
2017-09-01T05:27:33.476Z,2604
2017-09-01T05:28:33.500Z,2688
2017-09-01T05:29:33.502Z,2752
2017-09-01T05:30:33.542Z,2808
2017-09-01T05:31:33.479Z,2884
2017-09-01T05:32:33.510Z,2984
2017-09-01T05:33:33.509Z,3056
2017-09-01T05:34:33.543Z,3144
2017-09-01T05:35:33.544Z,3316
2017-09-01T05:36:33.482Z,3428
2017-09-01T05:37:33.509Z,3472
2017-09-01T05:38:33.553Z,3588
2017-09-01T05:39:33.510Z,3724
2017-09-01T05:40:33.482Z,4000
2017-09-01T05:41:33.483Z,4192
2017-09-01T05:42:33.484Z,4424
2017-09-01T05:43:33.544Z,4596
2017-09-01T05:44:33.517Z,5040
2017-09-01T05:45:33.512Z,5336
2017-09-01T05:46:33.549Z,5584
2017-09-01T05:47:33.487Z,5952
2017-09-01T05:48:33.549Z,6064
2017-09-01T05:49:33.549Z,6400
2017-09-01T05:50:33.554Z,6708
2017-09-01T05:51:33.519Z,6936
2017-09-01T05:52:33.518Z,7760
2017-09-01T05:53:33.489Z,8484
2017-09-01T05:54:33.490Z,8624
2017-09-01T05:55:33.549Z,8540
2017-09-01T05:56:33.494Z,8084
2017-09-01T05:57:33.552Z,7356
2017-09-01T05:58:33.494Z,7300
2017-09-01T05:59:33.492Z,8076
2017-09-01T06:00:33.497Z,8240
2017-09-01T06:01:33.496Z,7352
2017-09-01T06:02:33.561Z,7676
2017-09-01T06:03:33.559Z,7644
2017-09-01T06:04:33.532Z,7808
2017-09-01T06:05:33.557Z,7988
2017-09-01T06:06:33.533Z,8032
2017-09-01T06:07:33.529Z,7600
2017-09-01T06:08:33.502Z,6552
2017-09-01T06:09:33.532Z,6496
2017-09-01T06:10:33.532Z,6448
2017-09-01T06:11:33.524Z,6048
2017-09-01T06:12:33.484Z,5644
2017-09-01T06:13:33.573Z,5472
2017-09-01T06:14:33.515Z,5560
2017-09-01T06:15:33.524Z,5460
2017-09-01T06:16:33.539Z,5400
2017-09-01T06:17:33.545Z,5540
2017-09-01T06:18:33.578Z,5712
2017-09-01T06:19:33.599Z,5712
2017-09-01T06:20:33.603Z,5680
2017-09-01T06:21:33.519Z,5748
2017-09-01T06:22:33.512Z,5732
2017-09-01T06:23:33.575Z,5708
2017-09-01T06:24:33.536Z,5796
2017-09-01T06:25:33.549Z,6132
2017-09-01T06:26:33.578Z,6468
2017-09-01T06:27:33.603Z,6812
2017-09-01T06:28:33.518Z,7124
2017-09-01T06:29:33.612Z,7404
2017-09-01T06:30:33.520Z,7184
2017-09-01T06:31:33.520Z,7368
2017-09-01T06:32:33.517Z,7004
2017-09-01T06:33:33.541Z,6736
2017-09-01T06:34:33.565Z,6460
2017-09-01T06:35:33.659Z,6344
2017-09-01T06:36:33.558Z,6460
2017-09-01T06:37:33.528Z,6652
2017-09-01T06:38:33.600Z,6720
2017-09-01T06:39:33.643Z,6692
2017-09-01T06:40:33.589Z,6864
2017-09-01T06:41:33.546Z,7316
2017-09-01T06:42:33.580Z,8608
2017-09-01T06:43:33.561Z,9560
2017-09-01T06:44:33.583Z,10616
2017-09-01T06:45:33.615Z,11256
2017-09-01T06:46:33.585Z,12604
2017-09-01T06:47:33.624Z,13216
2017-09-01T06:48:33.624Z,14400
2017-09-01T06:49:33.601Z,15656
2017-09-01T06:50:33.594Z,15924
2017-09-01T06:51:33.548Z,15832
2017-09-01T06:52:33.548Z,16156
2017-09-01T06:53:33.605Z,16076
2017-09-01T06:54:33.573Z,16040
2017-09-01T06:55:33.574Z,16188
2017-09-01T06:56:33.539Z,16524
2017-09-01T06:57:33.568Z,18516
2017-09-01T06:58:33.568Z,19652
2017-09-01T06:59:33.590Z,21216
2017-09-01T07:00:33.536Z,19084
2017-09-01T07:01:33.627Z,22048
2017-09-01T07:02:33.628Z,22208
2017-09-01T07:03:33.577Z,21728
2017-09-01T07:04:33.542Z,21984
2017-09-01T07:05:33.545Z,21792
2017-09-01T07:06:33.564Z,22752
2017-09-01T07:07:33.597Z,23552
2017-09-01T07:08:33.563Z,26240
2017-09-01T07:09:33.562Z,27136
2017-09-01T07:10:33.564Z,26912
2017-09-01T07:11:33.530Z,25312
2017-09-01T07:12:33.534Z,24960
2017-09-01T07:13:33.538Z,25216
2017-09-01T07:14:33.606Z,26208
2017-09-01T07:15:33.538Z,26656
2017-09-01T07:16:33.577Z,24768
2017-09-01T07:17:33.567Z,26560
2017-09-01T07:18:33.545Z,23744
2017-09-01T07:19:33.503Z,25312
2017-09-01T07:20:33.569Z,23168
2017-09-01T07:21:33.570Z,23296
2017-09-01T07:22:33.571Z,21888
2017-09-01T07:23:33.526Z,22080
2017-09-01T07:24:33.525Z,24768
2017-09-01T07:25:33.584Z,22464
2017-09-01T07:26:33.504Z,23488
2017-09-01T07:27:33.557Z,23744
2017-09-01T07:28:33.576Z,24256
2017-09-01T07:29:33.575Z,25152
2017-09-01T07:30:33.571Z,23136
2017-09-01T07:31:33.575Z,19204
2017-09-01T07:32:33.559Z,17892
2017-09-01T07:33:33.631Z,16252
2017-09-01T07:34:33.627Z,15008
2017-09-01T07:35:33.587Z,14960
2017-09-01T07:36:33.612Z,15524
2017-09-01T07:37:33.580Z,15692
2017-09-01T07:38:33.556Z,15876
2017-09-01T07:39:33.614Z,16680
2017-09-01T07:40:33.630Z,17724
2017-09-01T07:41:33.580Z,18288
2017-09-01T07:42:33.585Z,18196
2017-09-01T07:43:33.614Z,17740
2017-09-01T07:44:33.560Z,18356
2017-09-01T07:45:33.569Z,18908
2017-09-01T07:46:33.658Z,19148
2017-09-01T07:47:33.660Z,18604
2017-09-01T07:48:33.600Z,20300
2017-09-01T07:49:33.646Z,21280
2017-09-01T07:50:33.585Z,22208
2017-09-01T07:51:33.590Z,23744
2017-09-01T07:52:33.596Z,25568
2017-09-01T07:53:33.569Z,27616
2017-09-01T07:54:33.570Z,31712
2017-09-01T07:55:33.653Z,32224
2017-09-01T07:56:33.709Z,32320
2017-09-01T07:57:33.565Z,32384
2017-09-01T07:58:33.592Z,33248
2017-09-01T07:59:33.598Z,33152
2017-09-01T08:00:33.577Z,36064
2017-09-01T08:01:33.579Z,38304
2017-09-01T08:02:33.636Z,36896
2017-09-01T08:03:33.571Z,37152
2017-09-01T08:04:33.592Z,37344
2017-09-01T08:05:33.543Z,34208
2017-09-01T08:06:33.634Z,37344
2017-09-01T08:07:33.630Z,33792
2017-09-01T08:08:33.656Z,30816
2017-09-01T08:09:33.574Z,31392
2017-09-01T08:10:33.599Z,35296
2017-09-01T08:11:33.571Z,36000
2017-09-01T08:12:33.635Z,36832
2017-09-01T08:13:33.604Z,34368
2017-09-01T08:14:33.602Z,38496
2017-09-01T08:15:33.638Z,39488
2017-09-01T08:16:33.647Z,35200
2017-09-01T08:17:33.584Z,33376
2017-09-01T08:18:33.624Z,31424
2017-09-01T08:19:33.610Z,30048
2017-09-01T08:20:33.650Z,35264
2017-09-01T08:21:33.596Z,33600
2017-09-01T08:22:33.672Z,37728
2017-09-01T08:23:33.592Z,41888
2017-09-01T08:24:33.617Z,35936
2017-09-01T08:25:33.627Z,39968
2017-09-01T08:26:33.621Z,44000
2017-09-01T08:27:33.567Z,43552
2017-09-01T08:28:33.585Z,41216
2017-09-01T08:29:33.585Z,42976
2017-09-01T08:30:33.592Z,48896
2017-09-01T08:31:33.614Z,49184
2017-09-01T08:32:33.564Z,51808
2017-09-01T08:33:33.606Z,48544
2017-09-01T08:34:33.617Z,52000
2017-09-01T08:35:33.618Z,50656
2017-09-01T08:36:33.655Z,50784
2017-09-01T08:37:33.688Z,47232
2017-09-01T08:38:33.634Z,44640
2017-09-01T08:39:33.626Z,44512
2017-09-01T08:40:33.626Z,44416
2017-09-01T08:41:33.674Z,41408
2017-09-01T08:42:33.702Z,41216
2017-09-01T08:43:33.654Z,43232
2017-09-01T08:44:33.691Z,43680
2017-09-01T08:45:33.601Z,43776
2017-09-01T08:46:33.634Z,45248
2017-09-01T08:47:33.639Z,45248
2017-09-01T08:48:33.606Z,44480
2017-09-01T08:49:33.667Z,42464
2017-09-01T08:50:33.604Z,40672
2017-09-01T08:51:33.633Z,41312
2017-09-01T08:52:33.678Z,44544
2017-09-01T08:53:33.629Z,44928
2017-09-01T08:54:33.705Z,45376
2017-09-01T08:55:33.697Z,45504
2017-09-01T08:56:33.624Z,46400
2017-09-01T08:57:33.673Z,48640
2017-09-01T08:58:33.664Z,51616
2017-09-01T08:59:33.660Z,55488
2017-09-01T09:00:33.601Z,55168
2017-09-01T09:01:33.628Z,53312
2017-09-01T09:02:33.633Z,58016
2017-09-01T09:03:33.666Z,61600
2017-09-01T09:04:33.666Z,63616
2017-09-01T09:05:33.671Z,65664
2017-09-01T09:06:33.615Z,63360
2017-09-01T09:07:33.638Z,53568
2017-09-01T09:08:33.618Z,63552
2017-09-01T09:09:33.615Z,64768
2017-09-01T09:10:33.653Z,65088
2017-09-01T09:11:33.634Z,63584
2017-09-01T09:12:33.653Z,64608
2017-09-01T09:13:33.622Z,68576
2017-09-01T09:14:33.655Z,92192
2017-09-01T09:15:33.676Z,93504
2017-09-01T09:16:33.618Z,89888
2017-09-01T09:17:33.692Z,82400
2017-09-01T09:18:33.719Z,97216
2017-09-01T09:19:33.692Z,85696
2017-09-01T09:20:33.628Z,89376
2017-09-01T09:21:33.712Z,66848
2017-09-01T09:22:33.715Z,74272
2017-09-01T09:23:33.722Z,70880
2017-09-01T09:24:33.664Z,68320
2017-09-01T09:25:33.655Z,67808
2017-09-01T09:26:33.721Z,65184
2017-09-01T09:27:33.693Z,69184
2017-09-01T09:28:33.627Z,69472
2017-09-01T09:29:33.664Z,75616
2017-09-01T09:30:33.730Z,85664
2017-09-01T09:31:33.706Z,67264
2017-09-01T09:32:33.668Z,64544
2017-09-01T09:33:33.628Z,68672
2017-09-01T09:34:33.695Z,70368
2017-09-01T09:35:33.669Z,76480
2017-09-01T09:36:33.670Z,52736
2017-09-01T09:37:33.642Z,53856
2017-09-01T09:38:33.568Z,64256
2017-09-01T09:39:33.640Z,70336
2017-09-01T09:40:33.596Z,89760
2017-09-01T09:41:33.617Z,88128
2017-09-01T09:42:33.684Z,102656
2017-09-01T09:43:33.652Z,99680
2017-09-01T09:44:33.619Z,100128
2017-09-01T09:45:33.630Z,99616
2017-09-01T09:46:33.571Z,99264
2017-09-01T09:47:33.659Z,104640
2017-09-01T09:48:33.691Z,104064
2017-09-01T09:49:33.657Z,103488
2017-09-01T09:50:33.691Z,98144
2017-09-01T09:51:33.631Z,98720
2017-09-01T09:52:33.698Z,100352
2017-09-01T09:53:33.699Z,92384
2017-09-01T09:54:33.628Z,91648
2017-09-01T09:55:33.633Z,93888
2017-09-01T09:56:33.631Z,87680
2017-09-01T09:57:33.827Z,94240
2017-09-01T09:58:33.670Z,95616
2017-09-01T10:00:33.685Z,90784
2017-09-01T10:01:33.646Z,96032
2017-09-01T10:02:33.681Z,98656
2017-09-01T10:03:33.706Z,93600
2017-09-01T10:04:33.647Z,89696
2017-09-01T10:05:33.703Z,89760
2017-09-01T10:06:33.703Z,93504
2017-09-01T10:07:33.668Z,93184
2017-09-01T10:08:33.653Z,94304
2017-09-01T10:09:33.649Z,92480
2017-09-01T10:10:33.719Z,90656
2017-09-01T10:11:33.675Z,96256
2017-09-01T10:12:33.680Z,100480
2017-09-01T10:13:33.710Z,95328
2017-09-01T10:14:33.743Z,104256
2017-09-01T10:15:33.740Z,104416
2017-09-01T10:16:33.713Z,105472
2017-09-01T10:17:33.693Z,103168
2017-09-01T10:18:33.649Z,104032
2017-09-01T10:19:33.593Z,100224
2017-09-01T10:20:33.648Z,105152
2017-09-01T10:21:33.590Z,103744
2017-09-01T10:22:33.592Z,105344
2017-09-01T10:23:33.593Z,107936
2017-09-01T10:24:33.671Z,103136
2017-09-01T10:25:33.657Z,102208
2017-09-01T10:26:33.797Z,103328
2017-09-01T10:27:33.759Z,95392
2017-09-01T10:28:33.689Z,90976
2017-09-01T10:29:33.683Z,94144
2017-09-01T10:30:33.718Z,86016
2017-09-01T10:31:33.752Z,86720
2017-09-01T10:32:33.660Z,91264
2017-09-01T10:33:33.663Z,88480
2017-09-01T10:34:33.738Z,79872
2017-09-01T10:35:33.727Z,88448
2017-09-01T10:36:33.665Z,98752
2017-09-01T10:37:33.760Z,96160
2017-09-01T10:38:33.763Z,89440
2017-09-01T10:39:33.757Z,87424
2017-09-01T10:40:33.743Z,102240
2017-09-01T10:41:33.742Z,109440
2017-09-01T10:42:33.695Z,106656
2017-09-01T10:43:33.696Z,106560
2017-09-01T10:44:33.764Z,111616
2017-09-01T10:45:33.679Z,103616
2017-09-01T10:46:33.732Z,109472
2017-09-01T10:47:33.734Z,110208
2017-09-01T10:48:33.680Z,101632
2017-09-01T10:49:33.707Z,98208
2017-09-01T10:50:33.693Z,102336
2017-09-01T10:51:33.739Z,101568
2017-09-01T10:52:33.678Z,101280
2017-09-01T10:53:33.769Z,95392
2017-09-01T10:54:33.681Z,100032
2017-09-01T10:55:33.678Z,101312
2017-09-01T10:56:33.702Z,99776
2017-09-01T10:57:33.701Z,94368
2017-09-01T10:58:33.739Z,94208
2017-09-01T10:59:33.733Z,90880
2017-09-01T11:00:33.699Z,83776
2017-09-01T11:01:33.671Z,86880
2017-09-01T11:02:33.736Z,88224
2017-09-01T11:03:33.700Z,91680
2017-09-01T11:04:33.739Z,88320
2017-09-01T11:05:33.745Z,83776
2017-09-01T11:06:33.711Z,83808
2017-09-01T11:07:33.723Z,81920
2017-09-01T11:08:33.741Z,83104
2017-09-01T11:09:33.726Z,89056
2017-09-01T11:10:33.683Z,88992
2017-09-01T11:11:33.714Z,88896
2017-09-01T11:12:33.741Z,89792
2017-09-01T11:13:33.778Z,90752
2017-09-01T11:14:33.728Z,96736
2017-09-01T11:15:33.765Z,90336
2017-09-01T11:16:33.788Z,90720
2017-09-01T11:17:33.780Z,89440
2017-09-01T11:18:33.747Z,92384
2017-09-01T11:19:33.789Z,92256
2017-09-01T11:20:33.783Z,93536
2017-09-01T11:21:33.723Z,91104
2017-09-01T11:22:33.696Z,89280
2017-09-01T11:23:33.766Z,90688
2017-09-01T11:24:33.695Z,84928
2017-09-01T11:25:33.699Z,91968
2017-09-01T11:26:33.702Z,91328
2017-09-01T11:27:33.786Z,89984
2017-09-01T11:28:33.776Z,85056
2017-09-01T11:29:33.697Z,82528
2017-09-01T11:30:33.703Z,86144
2017-09-01T11:31:33.699Z,94304
2017-09-01T11:32:33.755Z,93024
2017-09-01T11:33:33.774Z,85248
2017-09-01T11:34:33.741Z,85088
2017-09-01T11:35:33.737Z,88000
2017-09-01T11:36:33.732Z,91648
2017-09-01T11:37:33.703Z,91648
2017-09-01T11:38:33.791Z,88544
2017-09-01T11:39:33.757Z,97504
2017-09-01T11:40:33.707Z,96064
2017-09-01T11:41:33.738Z,77824
2017-09-01T11:42:33.714Z,96960
2017-09-01T11:43:33.744Z,75968
2017-09-01T11:44:33.705Z,83616
2017-09-01T11:45:33.760Z,79168
2017-09-01T11:46:33.794Z,93216
2017-09-01T11:47:33.728Z,101952
2017-09-01T11:48:33.713Z,107648
2017-09-01T11:49:33.749Z,112960
2017-09-01T11:50:33.711Z,105696
2017-09-01T11:51:33.764Z,97536
2017-09-01T11:52:33.722Z,98176
2017-09-01T11:53:33.751Z,102688
2017-09-01T11:54:33.748Z,115840
2017-09-01T11:55:33.773Z,118880
2017-09-01T11:56:33.737Z,122080
2017-09-01T11:57:33.711Z,118304
2017-09-01T11:58:33.723Z,120160
2017-09-01T11:59:33.711Z,112800
2017-09-01T12:00:33.693Z,101376
2017-09-01T12:01:33.728Z,97152
2017-09-01T12:02:33.734Z,91808
2017-09-01T12:03:33.717Z,106880
2017-09-01T12:04:33.712Z,102080
2017-09-01T12:05:33.732Z,111616
2017-09-01T12:06:33.721Z,108384
2017-09-01T12:07:33.739Z,109152
2017-09-01T12:08:33.777Z,112256
2017-09-01T12:09:33.770Z,101792
2017-09-01T12:10:33.744Z,110816
2017-09-01T12:11:33.743Z,132512
2017-09-01T12:12:33.712Z,128128
2017-09-01T12:13:33.717Z,121888
2017-09-01T12:14:33.786Z,113152
2017-09-01T12:15:33.760Z,113536
2017-09-01T12:16:33.715Z,114656
2017-09-01T12:17:33.729Z,108832
2017-09-01T12:18:33.800Z,92352
2017-09-01T12:19:33.729Z,99008
2017-09-01T12:20:33.802Z,93120
2017-09-01T12:21:33.793Z,99264
2017-09-01T12:22:33.757Z,95008
2017-09-01T12:23:33.794Z,94368
2017-09-01T12:24:33.818Z,94880
2017-09-01T12:25:33.759Z,88672
2017-09-01T12:26:33.818Z,88736
2017-09-01T12:27:33.786Z,88288
2017-09-01T12:28:33.734Z,86848
2017-09-01T12:29:33.764Z,81536
2017-09-01T12:30:33.821Z,74528
2017-09-01T12:31:33.736Z,75232
2017-09-01T12:32:33.742Z,75424
2017-09-01T12:33:33.800Z,107360
2017-09-01T12:34:33.802Z,77536
2017-09-01T12:35:33.818Z,89312
2017-09-01T12:36:33.760Z,97216
2017-09-01T12:37:33.803Z,97088
2017-09-01T12:38:33.829Z,102432
2017-09-01T12:39:33.778Z,99552
2017-09-01T12:40:33.734Z,116192
2017-09-01T12:41:33.775Z,113824
2017-09-01T12:42:33.772Z,109024
2017-09-01T12:43:33.741Z,100640
2017-09-01T12:44:33.805Z,92448
2017-09-01T12:45:33.767Z,84960
2017-09-01T12:46:33.798Z,85472
2017-09-01T12:47:33.886Z,96128
2017-09-01T12:48:33.741Z,103776
2017-09-01T12:49:33.743Z,118912
2017-09-01T12:50:33.767Z,106176
2017-09-01T12:51:33.697Z,114176
2017-09-01T12:52:33.693Z,93024
2017-09-01T12:53:33.768Z,98720
2017-09-01T12:54:33.774Z,95488
2017-09-01T12:55:33.768Z,97632
2017-09-01T12:56:33.719Z,96288
2017-09-01T12:57:33.755Z,120896
2017-09-01T12:58:33.839Z,76768
2017-09-01T12:59:33.789Z,80512
2017-09-01T13:00:33.779Z,120160
2017-09-01T13:01:33.815Z,103200
2017-09-01T13:02:33.812Z,99712
2017-09-01T13:03:33.755Z,88992
2017-09-01T13:04:33.757Z,104352
2017-09-01T13:05:33.855Z,100064
2017-09-01T13:06:33.765Z,116288
2017-09-01T13:07:33.793Z,120032
2017-09-01T13:08:33.788Z,120864
2017-09-01T13:09:33.778Z,91232
2017-09-01T13:10:33.824Z,79456
2017-09-01T13:11:33.790Z,100448
2017-09-01T13:12:33.791Z,103360
2017-09-01T13:13:33.758Z,107968
2017-09-01T13:14:33.850Z,83968
2017-09-01T13:15:33.778Z,89440
2017-09-01T13:16:33.763Z,67552
2017-09-01T13:17:33.807Z,80704
2017-09-01T13:18:33.801Z,79584
2017-09-01T13:19:33.782Z,82592
2017-09-01T13:20:33.854Z,67008
2017-09-01T13:21:33.853Z,59328
2017-09-01T13:22:33.837Z,56512
2017-09-01T13:23:33.820Z,52640
2017-09-01T13:24:33.850Z,52672
2017-09-01T13:25:33.856Z,56064
2017-09-01T13:26:33.800Z,60224
2017-09-01T13:27:33.806Z,70752
2017-09-01T13:28:33.791Z,68960
2017-09-01T13:29:33.823Z,76928
2017-09-01T13:30:33.858Z,102528